Airfield :
LOGIN :

Register | Disclaimer

   EN    FR    IT 

 










Legend :    VFR   Marginal VFR   IFR   Intensive IFR   Very Intensive IFR
Visi :
Ceiling :
>= 8 km
>= 3000ft
5 to 8 km
1000 to 3000 ft
1500m to 5 km
500 to 1000 ft
800 to 1500m
200 to 500 ft
< 800m
< 200 ft
Symbols :   Thunderstorms  Fog  Heavy snow  Heavy precipitations  Wind > 20 kt
SIGMETs :     Misc.  Thunderstorms  Icing  Turbulence  Mountain Waves  Volcanic Ashes






- Airport Elevation : 56 ft


LPOV - Ovar Air Base

CURRENT METAR :
  • 062100Z 34008KT 9999 BKN007 18/17 Q1014

EXPIRED METARs :
  • 062000Z 35007KT 9999 SCT007 18/16 Q1014

TAF TAF LPOV
Valid from the 06 at 18:00 until the 07 at 18:00 UTC


061709Z 0618/0718 35010KT CAVOK
BECMG 0619/0621 35005KT 6000 SCT002
PROB40 0621/0710 0400 FG BKN002
BECMG 0622/0701 VRB02KT 3000 BR BKN005
BECMG 0710/0712 32008KT 9999 NSW SCT010
PROB30 0712/0718 6000 BKN008



MET'MAP, your aeronautical weather chart ! - Copyright ORBIFLY December 2007 - Disclaimer

ORBIFLY MET'MAP TEAM :

Programming & Development : Alexandra Zaïnal
Concept & original design : Baudouin d'Aumeries
Assistance for programming : Marc-Olivier Méhu
Technical & hardware support : Manuel Goepfert

Contact : metmap@orbifly.com




SOURCES & CREDITS :

   NOAA